1A5

Macon County Airport

Franklin, North Carolina, USA
METAR K1A5 202125Z AUTO 33008G20KT 280V350 10SM CLR 00/M08 A2998 RMK AO2 T10011077
Observed Flight Rules
Jan-20 @ 21:25 UTC (21 minutes ago) Visual Flight Rules
Wind Visibility Clouds
330° at 8 knots
 Gusting to 20 knots
10 miles
  • Clear skies
Temperatures Readings
Current -0°C / 32°F
Dewpoint -8°C / 18°F
Humidity 55%
Altimeter 29.98" Hg
Pressure 1015.22 hPa
Elevation 616
METAR K1A5 202125Z AUTO 33008G20KT 280V350 10SM CLR 00/M08 A2998 RMK AO2 T10011077
Observed Flight Rules
Jan-20 @ 21:25 UTC
(21 minutes ago)
VFR
Wind Visibility
330° at 8 knots
 Gusting to 20 knots
10 miles
Clouds
  • Clear skies
Temperature Dewpoint
-0°C / 32°F -8°C / 18°F
Humidity Altimeter Pressure
55% 29.98" Hg 1015.22 hPa